Adamsons Peak, Australia
Current Conditions -  °F | °C
As of 10:30 PM on Monday 20 Oct 2014 (Local Time) from YMHB Reporting Station
Broken Clouds Broken Clouds  
Wind Chill: 50°   Ceiling: 3800
Heat Index: 50°   Visibility: 6mi
Dew Point: 39°   Wind: 5mph
Humidity: 66%   Direction: 90°E
Pressure: 30.56"   Gusts: NA
Location:  43.35°S, 146.8°E
Report Text: YMHB 201130Z 09004KT 9999 BKN038 10/04 Q1035
Loading
Personal Weather Stations






























Interactive Weather Map
Tropical Storm Tracking
New forecast layout! Learn more

10-Day Weather Forecast

Advertisements
Track Severe Weather on mobile